Time;durP1;ratioP1;P1;durP2;ratioP2;P2;SDS_P1;SDS_P2;PMS_P1;PMS_P2;Temp;Humidity;BMP_temperature;BMP_pressure;BME280_temperature;BME280_humidity;BME280_pressure;Samples;Min_cycle;Max_cycle;Signal;HPM_P1;HPM_P2
2022/03/26 00:00:37;;;;;;;195.27;97.18;;;;;;;;;;4833505;29;20058;-72
2022/03/26 00:03:04;;;;;;;197.43;95.88;;;;;;;;;;4819956;29;20050;-72
2022/03/26 00:05:30;;;;;;;201.27;97.00;;;;;;;;;;4817831;29;20452;-72
2022/03/26 00:07:56;;;;;;;195.13;97.50;;;;;;;;;;4802476;29;20126;-71
2022/03/26 00:10:23;;;;;;;201.40;98.07;;;;;;;;;;4819513;29;20054;-72
2022/03/26 00:12:52;;;;;;;196.00;98.00;;;;;;;;;;4819647;29;20129;-69
2022/03/26 00:15:19;;;;;;;202.32;100.47;;;;;;;;;;4833093;29;20429;-71
2022/03/26 00:17:45;;;;;;;;;;;;;;;;;;4819606;29;20066;-73
2022/03/26 00:20:11;;;;;;;198.07;97.90;;;;;;;;;;4819688;29;19993;-72
2022/03/26 00:22:37;;;;;;;207.52;99.53;;;;;;;;;;4821492;29;20198;-71
2022/03/26 00:25:04;;;;;;;201.13;96.93;;;;;;;;;;4822693;29;20213;-71
2022/03/26 00:27:30;;;;;;;209.52;98.13;;;;;;;;;;4822835;29;20066;-71
2022/03/26 00:30:00;;;;;;;200.13;96.20;;;;;;;;;;4820565;29;20047;-71
2022/03/26 00:32:26;;;;;;;202.80;97.13;;;;;;;;;;4806693;29;20073;-71
2022/03/26 00:34:52;;;;;;;201.30;99.95;;;;;;;;;;4836814;29;20046;-72
2022/03/26 00:37:18;;;;;;;214.38;105.30;;;;;;;;;;4822984;29;20050;-71
2022/03/26 00:39:44;;;;;;;211.65;102.90;;;;;;;;;;4822783;29;20133;-71
2022/03/26 00:42:10;;;;;;;211.38;101.22;;;;;;;;;;4836568;29;20050;-71
2022/03/26 00:44:37;;;;;;;209.35;103.20;;;;;;;;;;4822728;29;20069;-72
2022/03/26 00:47:06;;;;;;;206.18;98.93;;;;;;;;;;4822566;29;20119;-72
2022/03/26 00:49:32;;;;;;;205.35;100.80;;;;;;;;;;4822956;29;20085;-71
2022/03/26 00:51:58;;;;;;;;;;;;;;;;;;4822977;29;20058;-71
2022/03/26 00:54:25;;;;;;;205.00;102.03;;;;;;;;;;4821213;29;20035;-71
2022/03/26 00:56:51;;;;;;;215.30;102.68;;;;;;;;;;4836875;29;20050;-72
2022/03/26 00:59:17;;;;;;;206.07;98.72;;;;;;;;;;4822927;29;20134;-71
2022/03/26 01:01:43;;;;;;;210.07;98.75;;;;;;;;;;4822760;29;20076;-71
2022/03/26 01:04:09;;;;;;;210.27;102.18;;;;;;;;;;4822703;29;20129;-71
2022/03/26 01:06:36;;;;;;;206.90;100.80;;;;;;;;;;4836535;29;20137;-71
2022/03/26 01:09:02;;;;;;;211.20;101.97;;;;;;;;;;4822714;29;20061;-71
2022/03/26 01:11:28;;;;;;;;;;;;;;;;;;4822970;29;20069;-71
2022/03/26 01:13:56;;;;;;;214.63;102.13;;;;;;;;;;4821000;29;19925;-73
2022/03/26 01:16:25;;;;;;;210.63;101.20;;;;;;;;;;4836422;29;20090;-71
2022/03/26 01:18:52;;;;;;;217.68;103.10;;;;;;;;;;4835725;29;20122;-71
2022/03/26 01:21:18;;;;;;;;;;;;;;;;;;4822695;29;20101;-72
2022/03/26 01:23:44;;;;;;;216.70;103.30;;;;;;;;;;4821856;29;19967;-71
2022/03/26 01:26:11;;;;;;;213.30;102.55;;;;;;;;;;4822024;29;20054;-71
2022/03/26 01:28:37;;;;;;;217.25;105.30;;;;;;;;;;4805371;29;20444;-71
2022/03/26 01:31:03;;;;;;;211.90;104.97;;;;;;;;;;4820642;29;20058;-71
2022/03/26 01:33:29;;;;;;;207.20;101.78;;;;;;;;;;4821472;29;20503;-71
2022/03/26 01:35:55;;;;;;;209.77;101.57;;;;;;;;;;4821808;29;20091;-72
2022/03/26 01:38:24;;;;;;;208.13;99.13;;;;;;;;;;4821743;29;20062;-71
2022/03/26 01:40:50;;;;;;;205.60;101.50;;;;;;;;;;4835706;29;20123;-71
2022/03/26 01:43:17;;;;;;;212.43;102.25;;;;;;;;;;4821370;29;20046;-71
2022/03/26 01:45:43;;;;;;;206.43;100.15;;;;;;;;;;4821720;29;20112;-71
2022/03/26 01:48:10;;;;;;;201.38;95.40;;;;;;;;;;4821057;29;20055;-71
2022/03/26 01:50:36;;;;;;;216.15;102.70;;;;;;;;;;4821773;29;20473;-71
2022/03/26 01:53:03;;;;;;;218.85;104.78;;;;;;;;;;4821553;29;20064;-71
2022/03/26 01:55:30;;;;;;;207.38;102.35;;;;;;;;;;4821580;29;20492;-71
2022/03/26 01:57:56;;;;;;;218.10;104.40;;;;;;;;;;4821729;29;20082;-71
2022/03/26 02:00:22;;;;;;;208.95;102.90;;;;;;;;;;4821280;29;20086;-71
2022/03/26 02:02:48;;;;;;;212.85;104.90;;;;;;;;;;4821904;29;20123;-71
2022/03/26 02:05:17;;;;;;;219.38;101.70;;;;;;;;;;4835004;29;20129;-71
2022/03/26 02:07:46;;;;;;;222.27;106.65;;;;;;;;;;4821344;29;20145;-70
2022/03/26 02:10:13;;;;;;;214.95;102.93;;;;;;;;;;4835272;29;20497;-71
2022/03/26 02:12:39;;;;;;;215.15;104.20;;;;;;;;;;4835946;29;20055;-71
2022/03/26 02:15:06;;;;;;;208.73;98.97;;;;;;;;;;4821169;29;20061;-71
2022/03/26 02:17:33;;;;;;;208.45;103.03;;;;;;;;;;4820759;29;20166;-71
2022/03/26 02:20:00;;;;;;;211.63;102.82;;;;;;;;;;4821021;29;20078;-71
2022/03/26 02:22:27;;;;;;;196.45;99.10;;;;;;;;;;4820775;29;20437;-71
2022/03/26 02:24:53;;;;;;;205.15;100.20;;;;;;;;;;4820948;29;20089;-71
2022/03/26 02:27:21;;;;;;;204.70;99.97;;;;;;;;;;4804446;29;20046;-71
2022/03/26 02:29:47;;;;;;;197.82;93.50;;;;;;;;;;4820531;29;20141;-71
2022/03/26 02:32:13;;;;;;;201.30;94.60;;;;;;;;;;4819422;29;20050;-71
2022/03/26 02:34:42;;;;;;;200.52;98.18;;;;;;;;;;4834755;29;20506;-71
2022/03/26 02:37:08;;;;;;;210.40;98.80;;;;;;;;;;4820308;29;20106;-71
2022/03/26 02:39:34;;;;;;;232.50;108.32;;;;;;;;;;4820912;29;20054;-71
2022/03/26 02:42:01;;;;;;;230.30;110.32;;;;;;;;;;4804149;29;20148;-71
2022/03/26 02:44:27;;;;;;;235.32;113.78;;;;;;;;;;4819806;29;20342;-70
2022/03/26 02:46:53;;;;;;;229.82;111.05;;;;;;;;;;4834607;29;20487;-71
2022/03/26 02:49:19;;;;;;;229.57;109.13;;;;;;;;;;4834395;29;20077;-71
2022/03/26 02:51:45;;;;;;;238.88;113.50;;;;;;;;;;4820260;29;20051;-71
2022/03/26 02:54:18;;;;;;;225.35;108.80;;;;;;;;;;4834367;29;20074;-72
2022/03/26 02:56:56;;;;;;;226.80;106.47;;;;;;;;;;4820252;29;20364;-71
2022/03/26 02:59:23;;;;;;;240.60;108.03;;;;;;;;;;4820421;29;20087;-71
2022/03/26 03:01:49;;;;;;;226.77;106.10;;;;;;;;;;4834172;29;20109;-71
2022/03/26 03:04:16;;;;;;;246.32;112.45;;;;;;;;;;4820299;29;20065;-71
2022/03/26 03:06:42;;;;;;;;;;;;;;;;;;4820855;29;20346;-71
2022/03/26 03:09:08;;;;;;;232.23;110.88;;;;;;;;;;4820477;29;20001;-72
2022/03/26 03:11:35;;;;;;;228.82;107.50;;;;;;;;;;4820408;29;20160;-71
2022/03/26 03:14:01;;;;;;;219.32;104.30;;;;;;;;;;4820280;29;20072;-71
2022/03/26 03:16:28;;;;;;;233.85;107.25;;;;;;;;;;4820072;29;20069;-71
2022/03/26 03:18:54;;;;;;;225.82;105.20;;;;;;;;;;4818435;29;20508;-71
2022/03/26 03:21:20;;;;;;;232.15;110.75;;;;;;;;;;4833723;29;20054;-71
2022/03/26 03:23:46;;;;;;;230.07;111.57;;;;;;;;;;4820080;29;20050;-71
2022/03/26 03:26:12;;;;;;;244.65;111.22;;;;;;;;;;4819948;29;20050;-72
2022/03/26 03:28:38;;;;;;;237.88;113.38;;;;;;;;;;4819943;29;20090;-71
2022/03/26 03:31:04;;;;;;;233.38;109.78;;;;;;;;;;4820089;29;20054;-71
2022/03/26 03:33:30;;;;;;;;;;;;;;;;;;4834127;29;20054;-71
2022/03/26 03:35:56;;;;;;;214.52;104.53;;;;;;;;;;4819827;29;20381;-73
2022/03/26 03:38:23;;;;;;;218.23;103.43;;;;;;;;;;4819556;29;20459;-71
2022/03/26 03:40:49;;;;;;;219.13;100.43;;;;;;;;;;4803311;29;20140;-71
2022/03/26 03:43:15;;;;;;;;;;;;;;;;;;4820018;29;20073;-72
2022/03/26 03:45:41;;;;;;;218.93;103.32;;;;;;;;;;4819658;29;19925;-71
2022/03/26 03:48:07;;;;;;;225.63;103.72;;;;;;;;;;4819791;29;20135;-71
2022/03/26 03:50:33;;;;;;;219.45;102.72;;;;;;;;;;4819749;29;20133;-72
2022/03/26 03:52:59;;;;;;;224.18;103.05;;;;;;;;;;4819797;29;20062;-72
2022/03/26 03:55:25;;;;;;;228.93;106.00;;;;;;;;;;4819548;29;20050;-72
2022/03/26 03:57:51;;;;;;;218.98;102.25;;;;;;;;;;4818840;29;20503;-72
2022/03/26 04:00:17;;;;;;;232.63;107.65;;;;;;;;;;4819630;29;20171;-72
2022/03/26 04:02:44;;;;;;;223.75;108.70;;;;;;;;;;4819796;29;20093;-72
2022/03/26 04:05:10;;;;;;;;;;;;;;;;;;4819734;29;20066;-72
2022/03/26 04:07:37;;;;;;;242.25;111.25;;;;;;;;;;4819614;29;19941;-72
2022/03/26 04:10:04;;;;;;;264.13;115.47;;;;;;;;;;4833010;29;20129;-72
2022/03/26 04:12:30;;;;;;;261.60;117.50;;;;;;;;;;4819391;29;20059;-72
2022/03/26 04:14:56;;;;;;;243.90;113.35;;;;;;;;;;4819467;29;20046;-72
2022/03/26 04:17:22;;;;;;;242.75;111.15;;;;;;;;;;4819139;29;20090;-72
2022/03/26 04:19:49;;;;;;;260.02;112.57;;;;;;;;;;4819176;29;20465;-71
2022/03/26 04:22:15;;;;;;;261.90;119.35;;;;;;;;;;4819536;29;20142;-72
2022/03/26 04:24:41;;;;;;;243.98;116.30;;;;;;;;;;4802838;29;20138;-72
2022/03/26 04:27:07;;;;;;;239.73;114.53;;;;;;;;;;4819208;29;20066;-72
2022/03/26 04:29:33;;;;;;;251.75;118.72;;;;;;;;;;4819068;29;20061;-72
2022/03/26 04:31:59;;;;;;;243.13;112.60;;;;;;;;;;4819330;29;20135;-72
2022/03/26 04:34:26;;;;;;;259.65;116.22;;;;;;;;;;4819083;29;20062;-72
2022/03/26 04:36:52;;;;;;;258.88;114.13;;;;;;;;;;4819297;29;20089;-71
2022/03/26 04:39:18;;;;;;;260.13;112.03;;;;;;;;;;4819501;29;20555;-72
2022/03/26 04:41:44;;;;;;;233.10;110.57;;;;;;;;;;4819307;29;20054;-72
2022/03/26 04:44:10;;;;;;;229.05;111.32;;;;;;;;;;4819348;29;20050;-72
2022/03/26 04:46:38;;;;;;;233.15;108.22;;;;;;;;;;4819258;29;20046;-72
2022/03/26 04:49:04;;;;;;;228.63;104.13;;;;;;;;;;4818818;29;20456;-72
2022/03/26 04:51:30;;;;;;;239.13;111.57;;;;;;;;;;4833072;29;20161;-72
2022/03/26 04:53:56;;;;;;;236.05;110.65;;;;;;;;;;4819167;29;20145;-72
2022/03/26 04:56:22;;;;;;;246.18;112.13;;;;;;;;;;4819175;29;20135;-73
2022/03/26 04:58:48;;;;;;;229.05;110.18;;;;;;;;;;4818973;29;20106;-72
2022/03/26 05:01:15;;;;;;;238.95;112.90;;;;;;;;;;4818820;29;20190;-72
2022/03/26 05:03:42;;;;;;;263.55;118.55;;;;;;;;;;4832635;29;20062;-71
2022/03/26 05:06:08;;;;;;;;;;;;;;;;;;4819497;29;20054;-72
2022/03/26 05:08:34;;;;;;;225.50;105.82;;;;;;;;;;4803935;29;19925;-72
2022/03/26 05:11:00;;;;;;;228.82;105.38;;;;;;;;;;4805833;29;20480;-72
2022/03/26 05:13:26;;;;;;;235.15;106.95;;;;;;;;;;4836155;29;20050;-72
2022/03/26 05:15:52;;;;;;;232.63;104.93;;;;;;;;;;4822500;29;20129;-72
2022/03/26 05:18:18;;;;;;;233.32;106.80;;;;;;;;;;4821428;29;20195;-72
2022/03/26 05:20:44;;;;;;;228.02;109.80;;;;;;;;;;4821724;29;20548;-72
2022/03/26 05:23:10;;;;;;;237.60;109.63;;;;;;;;;;4821715;29;20137;-71
2022/03/26 05:25:37;;;;;;;243.43;108.30;;;;;;;;;;4821194;29;20122;-72
2022/03/26 05:28:03;;;;;;;243.75;111.28;;;;;;;;;;4834637;29;20134;-72
2022/03/26 05:30:29;;;;;;;;;;;;;;;;;;4834524;29;20058;-72
2022/03/26 05:32:55;;;;;;;248.23;112.03;;;;;;;;;;4820107;29;20338;-72
2022/03/26 05:35:21;;;;;;;;;;;;;;;;;;4820513;29;20139;-72
2022/03/26 05:37:49;;;;;;;230.15;106.78;;;;;;;;;;4819946;29;19995;-72
2022/03/26 05:40:17;;;;;;;231.13;108.38;;;;;;;;;;4819741;29;20134;-72
2022/03/26 05:42:44;;;;;;;231.95;111.75;;;;;;;;;;4819762;29;20058;-72
2022/03/26 05:45:10;;;;;;;226.05;108.00;;;;;;;;;;4818500;29;20446;-72
2022/03/26 05:47:39;;;;;;;246.18;110.45;;;;;;;;;;4818676;29;20114;-72
2022/03/26 05:50:07;;;;;;;240.23;105.95;;;;;;;;;;4833419;29;20105;-72
2022/03/26 05:52:33;;;;;;;230.85;106.82;;;;;;;;;;4819696;29;20119;-72
2022/03/26 05:54:59;;;;;;;231.40;108.72;;;;;;;;;;4819033;29;20066;-72
2022/03/26 05:57:25;;;;;;;227.73;105.22;;;;;;;;;;4833769;29;20050;-72
2022/03/26 05:59:51;;;;;;;219.30;101.97;;;;;;;;;;4833236;29;20162;-72
2022/03/26 06:02:18;;;;;;;215.45;98.68;;;;;;;;;;4819628;29;20485;-72
2022/03/26 06:04:44;;;;;;;219.10;98.68;;;;;;;;;;4819658;29;20058;-71
2022/03/26 06:07:10;;;;;;;;;;;;;;;;;;4819964;29;20179;-71
2022/03/26 06:09:37;;;;;;;222.85;103.28;;;;;;;;;;4819714;29;20345;-72
2022/03/26 06:12:04;;;;;;;227.27;105.60;;;;;;;;;;4819578;29;20073;-71
2022/03/26 06:14:30;;;;;;;225.45;103.18;;;;;;;;;;4819543;29;20197;-71
2022/03/26 06:16:56;;;;;;;211.23;99.18;;;;;;;;;;4819785;29;20050;-71
2022/03/26 06:19:22;;;;;;;220.32;101.63;;;;;;;;;;4802134;29;20062;-71
2022/03/26 06:21:49;;;;;;;203.50;95.72;;;;;;;;;;4819659;29;20058;-71
2022/03/26 06:24:15;;;;;;;219.70;102.50;;;;;;;;;;4819663;29;20160;-71
2022/03/26 06:26:43;;;;;;;221.90;101.55;;;;;;;;;;4833090;29;20077;-71
2022/03/26 06:29:10;;;;;;;209.63;97.72;;;;;;;;;;4819409;29;20157;-71
2022/03/26 06:31:36;;;;;;;216.25;99.80;;;;;;;;;;4835301;29;20421;-72
2022/03/26 06:34:02;;;;;;;218.38;102.15;;;;;;;;;;4819165;29;20130;-71
2022/03/26 06:36:28;;;;;;;218.13;107.13;;;;;;;;;;4818769;29;20061;-71
2022/03/26 06:38:54;;;;;;;216.38;100.13;;;;;;;;;;4819800;29;20042;-71
2022/03/26 06:41:20;;;;;;;223.93;104.97;;;;;;;;;;4833056;29;20110;-71
2022/03/26 06:43:49;;;;;;;216.30;99.25;;;;;;;;;;4818798;29;20050;-70
2022/03/26 06:46:15;;;;;;;216.93;96.15;;;;;;;;;;4819100;29;20061;-70
2022/03/26 06:48:41;;;;;;;213.70;95.45;;;;;;;;;;4818612;29;20047;-71
2022/03/26 06:51:08;;;;;;;211.52;98.80;;;;;;;;;;4832649;29;20061;-70
2022/03/26 06:53:35;;;;;;;207.32;94.35;;;;;;;;;;4818679;29;20074;-69
2022/03/26 06:56:01;;;;;;;198.85;96.90;;;;;;;;;;4832075;29;20095;-70
2022/03/26 06:58:28;;;;;;;205.68;93.25;;;;;;;;;;4818568;29;20097;-69
2022/03/26 07:00:54;;;;;;;221.00;101.68;;;;;;;;;;4832276;29;20183;-69
2022/03/26 07:03:20;;;;;;;209.30;94.57;;;;;;;;;;4818348;29;20476;-69
2022/03/26 07:05:48;;;;;;;208.25;94.70;;;;;;;;;;4801981;29;20118;-70
2022/03/26 07:08:14;;;;;;;200.88;95.40;;;;;;;;;;4818721;29;20483;-69
2022/03/26 07:10:44;;;;;;;208.63;90.53;;;;;;;;;;4818569;29;20117;-71
2022/03/26 07:13:12;;;;;;;206.38;92.90;;;;;;;;;;4802061;29;20050;-69
2022/03/26 07:15:38;;;;;;;193.80;92.38;;;;;;;;;;4818505;29;20057;-71
2022/03/26 07:18:04;;;;;;;195.93;93.13;;;;;;;;;;4801245;29;20089;-70
2022/03/26 07:20:30;;;;;;;184.18;86.72;;;;;;;;;;4801640;29;20167;-69
2022/03/26 07:22:56;;;;;;;178.95;87.72;;;;;;;;;;4818014;29;20122;-70
2022/03/26 07:25:25;;;;;;;185.65;87.30;;;;;;;;;;4818120;29;20440;-69
2022/03/26 07:27:52;;;;;;;173.63;85.30;;;;;;;;;;4832061;29;20341;-69
2022/03/26 07:30:19;;;;;;;177.80;84.65;;;;;;;;;;4818208;29;20562;-69
2022/03/26 07:32:45;;;;;;;174.88;81.43;;;;;;;;;;4818009;29;20057;-68
2022/03/26 07:35:11;;;;;;;174.25;78.72;;;;;;;;;;4832126;29;20054;-69
2022/03/26 07:37:37;;;;;;;169.48;80.63;;;;;;;;;;4818134;29;20076;-69
2022/03/26 07:40:04;;;;;;;165.15;75.88;;;;;;;;;;4818186;29;20443;-69
2022/03/26 07:42:33;;;;;;;157.75;78.70;;;;;;;;;;4818093;29;20056;-69
2022/03/26 07:44:59;;;;;;;155.25;77.28;;;;;;;;;;4818053;29;20053;-68
2022/03/26 07:47:28;;;;;;;164.20;76.25;;;;;;;;;;4817833;29;20050;-69
2022/03/26 07:49:55;;;;;;;153.35;76.07;;;;;;;;;;4817752;29;20046;-69
2022/03/26 07:52:22;;;;;;;150.95;72.03;;;;;;;;;;4817883;29;20054;-68
2022/03/26 07:54:48;;;;;;;154.52;77.13;;;;;;;;;;4817328;29;20146;-69
2022/03/26 07:57:15;;;;;;;148.57;75.55;;;;;;;;;;4818643;29;20122;-68
2022/03/26 07:59:41;;;;;;;148.68;69.38;;;;;;;;;;4801433;29;20062;-67
2022/03/26 08:02:07;;;;;;;143.25;71.43;;;;;;;;;;4817394;29;20054;-68
2022/03/26 08:04:35;;;;;;;151.90;71.88;;;;;;;;;;4831023;29;20130;-68
2022/03/26 08:07:01;;;;;;;151.68;70.00;;;;;;;;;;4817088;29;20062;-69
2022/03/26 08:09:27;;;;;;;136.43;69.57;;;;;;;;;;4831762;29;20087;-68
2022/03/26 08:11:53;;;;;;;139.18;68.55;;;;;;;;;;4830889;29;20062;-71
2022/03/26 08:14:19;;;;;;;141.80;68.68;;;;;;;;;;4831675;29;20043;-69
2022/03/26 08:16:45;;;;;;;139.70;70.78;;;;;;;;;;4831706;29;20078;-70
2022/03/26 08:19:11;;;;;;;132.55;66.20;;;;;;;;;;4817744;29;20186;-70
2022/03/26 08:21:37;;;;;;;140.05;64.68;;;;;;;;;;4818168;29;20076;-70
2022/03/26 08:24:04;;;;;;;120.35;59.97;;;;;;;;;;4819176;29;20081;-71
2022/03/26 08:26:30;;;;;;;111.90;56.53;;;;;;;;;;4816534;29;20050;-66
2022/03/26 08:28:57;;;;;;;117.53;56.88;;;;;;;;;;4801147;29;20145;-68
2022/03/26 08:31:24;;;;;;;114.75;58.80;;;;;;;;;;4817917;29;20058;-67
2022/03/26 08:33:50;;;;;;;120.50;60.08;;;;;;;;;;4831557;29;20436;-64
2022/03/26 08:36:17;;;;;;;103.63;54.80;;;;;;;;;;4816116;29;20048;-66
2022/03/26 08:38:46;;;;;;;106.82;56.90;;;;;;;;;;4817693;29;20065;-64
2022/03/26 08:41:17;;;;;;;101.68;54.13;;;;;;;;;;4831505;29;20098;-66
2022/03/26 08:43:43;;;;;;;107.63;56.28;;;;;;;;;;4819806;29;20069;-67
2022/03/26 08:46:13;;;;;;;104.72;53.92;;;;;;;;;;4821225;29;20133;-67
2022/03/26 08:48:39;;;;;;;106.10;54.17;;;;;;;;;;4821115;29;20042;-67
2022/03/26 08:51:05;;;;;;;102.82;53.15;;;;;;;;;;4821166;29;20065;-67
2022/03/26 08:53:31;;;;;;;101.53;54.55;;;;;;;;;;4835162;29;20057;-68
2022/03/26 08:55:57;;;;;;;101.85;52.55;;;;;;;;;;4821124;29;20054;-68
2022/03/26 08:58:23;;;;;;;;;;;;;;;;;;4821625;29;20046;-68
2022/03/26 09:00:51;;;;;;;106.07;53.58;;;;;;;;;;4804761;29;19921;-68
2022/03/26 09:03:21;;;;;;;103.05;50.75;;;;;;;;;;4820896;29;20058;-66
2022/03/26 09:05:48;;;;;;;90.22;49.00;;;;;;;;;;4820946;29;20065;-67
2022/03/26 09:08:14;;;;;;;;;;;;;;;;;;4821347;29;20062;-67
2022/03/26 09:10:40;;;;;;;83.28;45.85;;;;;;;;;;4820734;29;20331;-66
2022/03/26 09:13:06;;;;;;;77.18;45.55;;;;;;;;;;4820562;29;20061;-67
2022/03/26 09:15:32;;;;;;;;;;;;;;;;;;4821100;29;20125;-66
2022/03/26 09:17:59;;;;;;;75.65;41.58;;;;;;;;;;4820474;29;19988;-65
2022/03/26 09:20:26;;;;;;;78.32;42.10;;;;;;;;;;4804144;29;20068;-66
2022/03/26 09:22:53;;;;;;;69.03;36.60;;;;;;;;;;4820633;29;20107;-65
2022/03/26 09:25:20;;;;;;;66.32;38.08;;;;;;;;;;4819614;29;20146;-66
2022/03/26 09:27:46;;;;;;;63.97;35.20;;;;;;;;;;4820055;29;20448;-66
2022/03/26 09:30:12;;;;;;;54.40;30.15;;;;;;;;;;4821266;29;20126;-65
2022/03/26 09:32:38;;;;;;;48.45;28.48;;;;;;;;;;4822957;29;20149;-66
2022/03/26 09:35:05;;;;;;;52.90;29.73;;;;;;;;;;4822397;29;20147;-64
2022/03/26 09:37:31;;;;;;;49.92;26.77;;;;;;;;;;4834220;29;20126;-63
2022/03/26 09:39:57;;;;;;;45.70;26.20;;;;;;;;;;4819924;29;20459;-67
2022/03/26 09:42:24;;;;;;;42.97;23.92;;;;;;;;;;4803339;29;20122;-63
2022/03/26 09:44:53;;;;;;;43.63;23.85;;;;;;;;;;4833774;29;20472;-64
2022/03/26 09:47:21;;;;;;;46.33;24.08;;;;;;;;;;4819838;29;20329;-65
2022/03/26 09:49:47;;;;;;;42.35;23.58;;;;;;;;;;4820006;29;20049;-63
2022/03/26 09:52:13;;;;;;;46.33;24.92;;;;;;;;;;4819913;29;20345;-64
2022/03/26 09:54:39;;;;;;;40.58;24.00;;;;;;;;;;4803046;29;20090;-64
2022/03/26 09:57:07;;;;;;;41.30;23.45;;;;;;;;;;4833633;29;20046;-63
2022/03/26 09:59:36;;;;;;;41.33;23.70;;;;;;;;;;4819563;29;20065;-64
2022/03/26 10:02:03;;;;;;;41.13;24.17;;;;;;;;;;4819449;29;20141;-66
2022/03/26 10:04:42;;;;;;;38.72;20.20;;;;;;;;;;4819561;29;20588;-62
2022/03/26 10:07:08;;;;;;;38.45;18.48;;;;;;;;;;4819619;29;20181;-64
2022/03/26 10:09:38;;;;;;;28.98;17.05;;;;;;;;;;4819712;29;20070;-64
2022/03/26 10:12:08;;;;;;;34.38;18.05;;;;;;;;;;4819655;29;20050;-63
2022/03/26 10:14:43;;;;;;;36.55;18.38;;;;;;;;;;4819740;29;20061;-62
2022/03/26 10:17:17;;;;;;;33.40;16.60;;;;;;;;;;4819338;29;20070;-61
2022/03/26 10:19:44;;;;;;;22.38;11.13;;;;;;;;;;4819454;29;20084;-62
2022/03/26 10:22:22;;;;;;;27.77;13.55;;;;;;;;;;4820081;29;20228;-62
2022/03/26 10:24:48;;;;;;;28.30;15.25;;;;;;;;;;4820019;29;20054;-62
2022/03/26 10:27:14;;;;;;;26.85;15.40;;;;;;;;;;4833569;29;20100;-63
2022/03/26 10:29:51;;;;;;;33.42;16.50;;;;;;;;;;4819775;29;20054;-65
2022/03/26 10:32:45;;;;;;;31.15;17.50;;;;;;;;;;4819489;29;20091;-66
2022/03/26 10:35:12;;;;;;;39.42;18.83;;;;;;;;;;4819567;29;20085;-65
2022/03/26 10:37:58;;;;;;;33.70;18.60;;;;;;;;;;4819420;29;20058;-65
2022/03/26 10:40:24;;;;;;;31.88;17.65;;;;;;;;;;4803115;29;20054;-65
2022/03/26 10:42:58;;;;;;;30.67;15.88;;;;;;;;;;4819560;29;20073;-63
2022/03/26 10:45:24;;;;;;;25.80;13.40;;;;;;;;;;4819258;29;20064;-64
2022/03/26 10:47:52;;;;;;;;;;;;;;;;;;4819928;29;20460;-63
2022/03/26 10:50:18;;;;;;;20.67;11.02;;;;;;;;;;4818904;29;20023;-64
2022/03/26 10:52:44;;;;;;;24.30;9.88;;;;;;;;;;4819340;29;20054;-62
2022/03/26 10:55:14;;;;;;;17.58;9.30;;;;;;;;;;4819154;29;20052;-66
2022/03/26 10:57:41;;;;;;;18.02;9.20;;;;;;;;;;4818902;29;20463;-66
2022/03/26 11:00:09;;;;;;;19.73;9.35;;;;;;;;;;4819295;29;20069;-65
2022/03/26 11:02:35;;;;;;;19.15;8.95;;;;;;;;;;4818955;29;20129;-65
2022/03/26 11:05:01;;;;;;;20.08;9.00;;;;;;;;;;4802891;29;20046;-66
2022/03/26 11:07:28;;;;;;;15.95;7.75;;;;;;;;;;4817079;29;20492;-63
2022/03/26 11:09:56;;;;;;;15.27;7.60;;;;;;;;;;4820047;29;20094;-61
2022/03/26 11:12:24;;;;;;;16.83;7.65;;;;;;;;;;4818620;29;20050;-62
2022/03/26 11:14:51;;;;;;;15.73;7.63;;;;;;;;;;4819085;29;20058;-65
2022/03/26 11:17:36;;;;;;;14.98;6.55;;;;;;;;;;4818325;29;20122;-63
2022/03/26 11:20:15;;;;;;;16.55;7.68;;;;;;;;;;4818571;29;20058;-65
2022/03/26 11:22:41;;;;;;;17.77;7.47;;;;;;;;;;4819565;29;20065;-66
2022/03/26 11:25:13;;;;;;;17.05;7.07;;;;;;;;;;4832636;29;20050;-65
2022/03/26 11:27:51;;;;;;;15.98;6.15;;;;;;;;;;4818733;29;20358;-64
2022/03/26 11:30:28;;;;;;;14.60;6.72;;;;;;;;;;4818788;29;20107;-67
2022/03/26 11:32:55;;;;;;;15.25;6.38;;;;;;;;;;4832592;29;20409;-63
2022/03/26 11:35:22;;;;;;;13.52;5.60;;;;;;;;;;4818608;29;20092;-63
2022/03/26 11:37:52;;;;;;;13.07;5.40;;;;;;;;;;4831595;29;20477;-64
2022/03/26 11:40:44;;;;;;;11.70;5.38;;;;;;;;;;4818324;29;20058;-66
2022/03/26 11:43:17;;;;;;;13.30;5.90;;;;;;;;;;4814826;29;20549;-64
2022/03/26 11:51:33;;;;;;;12.70;5.97;;;;;;;;;;4818262;29;20058;-63
2022/03/26 11:53:59;;;;;;;14.63;5.65;;;;;;;;;;4818457;29;20126;-67
2022/03/26 11:56:27;;;;;;;14.55;6.00;;;;;;;;;;4818648;29;20182;-67
2022/03/26 11:59:12;;;;;;;14.85;6.63;;;;;;;;;;4817916;29;20090;-65
2022/03/26 12:01:39;;;;;;;14.48;6.65;;;;;;;;;;4818272;29;20211;-66
2022/03/26 12:04:10;;;;;;;16.98;7.13;;;;;;;;;;4818651;29;20050;-66
2022/03/26 12:06:42;;;;;;;14.25;6.40;;;;;;;;;;4832629;29;20074;-66
2022/03/26 12:09:10;;;;;;;14.27;7.30;;;;;;;;;;4832530;29;20095;-68
2022/03/26 12:11:36;;;;;;;14.88;6.72;;;;;;;;;;4817701;29;20054;-66
2022/03/26 12:14:02;;;;;;;;;;;;;;;;;;4819074;29;20149;-66
2022/03/26 12:17:08;;;;;;;13.45;6.55;;;;;;;;;;4818094;29;19929;-67
2022/03/26 12:19:41;;;;;;;14.90;6.65;;;;;;;;;;4743552;30;20068;-69
2022/03/26 12:22:19;;;;;;;15.77;5.60;;;;;;;;;;4743676;30;20150;-66
2022/03/26 12:24:45;;;;;;;15.55;6.10;;;;;;;;;;4789317;29;20090;-63
2022/03/26 12:27:12;;;;;;;13.90;5.43;;;;;;;;;;4817913;29;20062;-66
2022/03/26 12:29:38;;;;;;;12.90;4.93;;;;;;;;;;4816722;29;20059;-64
2022/03/26 12:32:04;;;;;;;13.10;4.97;;;;;;;;;;4817724;29;20130;-62
2022/03/26 12:34:31;;;;;;;14.60;7.22;;;;;;;;;;4817640;29;20509;-63
2022/03/26 12:37:01;;;;;;;15.95;6.47;;;;;;;;;;4832285;29;20058;-66
2022/03/26 12:39:27;;;;;;;16.48;6.90;;;;;;;;;;4831710;29;20039;-67
2022/03/26 12:41:54;;;;;;;19.10;7.07;;;;;;;;;;4831683;29;20057;-68
2022/03/26 12:44:22;;;;;;;15.13;6.35;;;;;;;;;;4817751;29;20046;-64
2022/03/26 12:46:56;;;;;;;14.45;5.47;;;;;;;;;;4818122;29;20061;-64
2022/03/26 12:49:22;;;;;;;14.35;5.78;;;;;;;;;;4818104;29;20095;-64
2022/03/26 12:51:52;;;;;;;21.23;7.25;;;;;;;;;;4817879;29;20069;-64
2022/03/26 12:54:19;;;;;;;16.05;6.93;;;;;;;;;;4817154;29;20487;-70
2022/03/26 12:56:45;;;;;;;17.80;6.05;;;;;;;;;;4800741;29;20057;-62
2022/03/26 12:59:13;;;;;;;12.75;5.20;;;;;;;;;;4817785;29;20042;-62
2022/03/26 13:01:39;;;;;;;14.27;5.57;;;;;;;;;;4817521;29;20119;-63
2022/03/26 13:04:06;;;;;;;15.05;5.43;;;;;;;;;;4817475;29;20072;-65
2022/03/26 13:06:32;;;;;;;14.50;5.15;;;;;;;;;;4831020;29;20068;-66
2022/03/26 13:09:01;;;;;;;15.18;5.18;;;;;;;;;;4830795;29;20061;-61
2022/03/26 13:11:28;;;;;;;10.05;4.43;;;;;;;;;;4817156;29;20046;-63
2022/03/26 13:13:55;;;;;;;12.55;4.65;;;;;;;;;;4817182;29;20065;-65
2022/03/26 13:16:24;;;;;;;12.73;4.60;;;;;;;;;;4817118;29;20054;-66
2022/03/26 13:18:56;;;;;;;11.90;4.85;;;;;;;;;;4817020;29;20401;-65
2022/03/26 13:21:22;;;;;;;13.40;5.22;;;;;;;;;;4817291;29;20058;-65
2022/03/26 13:23:48;;;;;;;;;;;;;;;;;;4831389;29;20068;-65
2022/03/26 13:26:14;;;;;;;15.75;6.07;;;;;;;;;;4801314;29;20346;-66
2022/03/26 13:28:42;;;;;;;14.05;4.65;;;;;;;;;;4818086;29;20133;-64
2022/03/26 13:31:18;;;;;;;12.05;5.10;;;;;;;;;;4820754;29;20563;-65
2022/03/26 13:33:45;;;;;;;19.52;5.63;;;;;;;;;;4820726;29;20204;-66
2022/03/26 13:36:11;;;;;;;13.50;5.30;;;;;;;;;;4820481;29;20118;-64
2022/03/26 13:38:40;;;;;;;11.98;4.53;;;;;;;;;;4820404;29;20050;-64
2022/03/26 13:41:20;;;;;;;13.43;5.10;;;;;;;;;;4820633;29;20071;-65
2022/03/26 13:43:47;;;;;;;14.60;4.57;;;;;;;;;;4820224;29;20106;-67
2022/03/26 13:46:14;;;;;;;11.75;4.78;;;;;;;;;;4820439;29;20129;-63
2022/03/26 13:48:39;;;;;;;;;;;;;;;;;;4820597;29;20038;-63
2022/03/26 13:51:10;;;;;;;16.75;5.05;;;;;;;;;;4803943;29;20383;-64
2022/03/26 13:53:40;;;;;;;15.43;5.10;;;;;;;;;;4820002;29;20159;-65
2022/03/26 13:56:07;;;;;;;11.25;4.90;;;;;;;;;;4820336;29;20085;-64
2022/03/26 13:58:34;;;;;;;12.27;4.80;;;;;;;;;;4819865;29;20103;-65
2022/03/26 14:01:06;;;;;;;14.25;4.38;;;;;;;;;;4803518;29;20378;-64
2022/03/26 14:03:41;;;;;;;11.38;4.55;;;;;;;;;;4819963;29;20062;-65
2022/03/26 14:06:07;;;;;;;12.35;4.60;;;;;;;;;;4833651;29;20329;-63
2022/03/26 14:08:37;;;;;;;11.23;3.92;;;;;;;;;;4820353;29;20094;-67
2022/03/26 14:11:03;;;;;;;11.57;4.53;;;;;;;;;;4833655;29;20145;-64
2022/03/26 14:13:29;;;;;;;;;;;;;;;;;;4820256;29;20046;-64
2022/03/26 14:15:55;;;;;;;11.27;3.88;;;;;;;;;;4819281;29;19924;-65
2022/03/26 14:18:22;;;;;;;12.50;4.88;;;;;;;;;;4819090;29;20457;-64
2022/03/26 14:20:50;;;;;;;11.68;4.70;;;;;;;;;;4819888;29;20129;-65
2022/03/26 14:23:16;;;;;;;12.23;4.32;;;;;;;;;;4819556;29;20058;-66